Time;durP1;ratioP1;P1;durP2;ratioP2;P2;SDS_P1;SDS_P2;PMS_P1;PMS_P2;Temp;Humidity;BMP_temperature;BMP_pressure;BME280_temperature;BME280_humidity;BME280_pressure;Samples;Min_cycle;Max_cycle;Signal;HPM_P1;HPM_P2
2022/09/01 00:00:49;;;;;;;2.20;1.30;;;;;;;;;;108715;1297;22405;-28
2022/09/01 00:03:16;;;;;;;1.90;1.20;;;;;;;;;;108758;1297;22360;-28
2022/09/01 00:05:42;;;;;;;2.50;1.20;;;;;;;;;;108744;1297;22531;-28
2022/09/01 00:08:08;;;;;;;2.80;1.50;;;;;;;;;;108756;1298;22586;-24
2022/09/01 00:10:33;;;;;;;2.50;1.60;;;;;;;;;;108773;1297;23022;-28
2022/09/01 00:12:58;;;;;;;13.70;1.90;;;;;;;;;;108725;1297;22537;-24
2022/09/01 00:15:24;;;;;;;4.20;2.00;;;;;;;;;;108682;1298;22632;-28
2022/09/01 00:17:49;;;;;;;2.20;1.30;;;;;;;;;;108779;1297;22517;-25
2022/09/01 00:20:15;;;;;;;2.00;1.20;;;;;;;;;;108693;1298;23444;-28
2022/09/01 00:22:41;;;;;;;5.00;2.40;;;;;;;;;;108742;1298;22452;-24
2022/09/01 00:25:06;;;;;;;5.90;2.00;;;;;;;;;;108762;1297;22544;-28
2022/09/01 00:27:32;;;;;;;2.20;1.70;;;;;;;;;;108747;1304;22627;-24
2022/09/01 00:29:58;;;;;;;4.40;1.30;;;;;;;;;;108723;1297;23243;-24
2022/09/01 00:32:24;;;;;;;1.80;1.20;;;;;;;;;;108771;1297;23121;-25
2022/09/01 00:34:49;;;;;;;2.70;1.60;;;;;;;;;;108763;1297;23143;-28
2022/09/01 00:37:15;;;;;;;3.90;1.70;;;;;;;;;;108738;1297;22306;-24
2022/09/01 00:39:40;;;;;;;2.80;1.50;;;;;;;;;;108753;1298;22429;-25
2022/09/01 00:42:06;;;;;;;3.00;1.80;;;;;;;;;;108765;1297;23086;-28
2022/09/01 00:44:35;;;;;;;2.50;1.40;;;;;;;;;;108748;1304;22531;-26
2022/09/01 00:47:00;;;;;;;1.80;1.20;;;;;;;;;;108747;1298;22435;-24
2022/09/01 00:49:29;;;;;;;2.40;1.20;;;;;;;;;;108772;1297;22428;-28
2022/09/01 00:51:57;;;;;;;2.90;1.60;;;;;;;;;;108720;1298;22657;-28
2022/09/01 00:54:24;;;;;;;4.20;1.30;;;;;;;;;;108722;1297;23147;-28
2022/09/01 00:56:49;;;;;;;3.30;1.80;;;;;;;;;;108726;1304;22626;-24
2022/09/01 00:59:15;;;;;;;3.00;1.00;;;;;;;;;;108733;1304;22349;-24
2022/09/01 01:01:41;;;;;;;1.40;0.90;;;;;;;;;;108729;1304;23227;-28
2022/09/01 01:04:13;;;;;;;3.50;1.30;;;;;;;;;;108744;1297;22547;-24
2022/09/01 01:06:40;;;;;;;3.40;1.20;;;;;;;;;;108783;1297;23162;-38
2022/09/01 01:09:06;;;;;;;3.70;2.00;;;;;;;;;;108775;1298;23661;-25
2022/09/01 01:11:31;;;;;;;4.00;1.70;;;;;;;;;;108773;1297;22566;-24
2022/09/01 01:13:58;;;;;;;2.00;1.30;;;;;;;;;;108728;1298;22423;-24
2022/09/01 01:16:24;;;;;;;3.20;2.00;;;;;;;;;;108749;1302;25373;-25
2022/09/01 01:18:50;;;;;;;2.40;1.80;;;;;;;;;;108737;1289;22288;-28
2022/09/01 01:23:50;;;;;;;2.90;2.20;;;;;;;;;;108359;1298;23702;-28
2022/09/01 01:26:15;;;;;;;4.80;2.00;;;;;;;;;;108752;1298;22327;-24
2022/09/01 01:28:43;;;;;;;2.70;1.90;;;;;;;;;;108752;1297;22764;-28
2022/09/01 01:31:11;;;;;;;1.90;1.10;;;;;;;;;;108743;1298;22385;-28
2022/09/01 01:33:40;;;;;;;3.00;1.50;;;;;;;;;;108698;1297;22445;-28
2022/09/01 01:36:09;;;;;;;1.10;1.00;;;;;;;;;;108739;1304;23262;-24
2022/09/01 01:38:34;;;;;;;3.80;1.80;;;;;;;;;;108717;1299;22380;-24
2022/09/01 01:41:02;;;;;;;1.50;1.10;;;;;;;;;;108746;1298;22251;-28
2022/09/01 01:43:28;;;;;;;4.70;1.60;;;;;;;;;;108741;1299;22550;-24
2022/09/01 01:45:55;;;;;;;2.10;1.20;;;;;;;;;;108702;1297;22585;-27
2022/09/01 01:48:22;;;;;;;3.40;1.80;;;;;;;;;;108615;1297;22710;-24
2022/09/01 01:50:48;;;;;;;3.00;1.50;;;;;;;;;;108759;1297;23322;-24
2022/09/01 01:53:16;;;;;;;1.80;1.30;;;;;;;;;;108754;1298;23139;-26
2022/09/01 01:55:42;;;;;;;4.20;1.60;;;;;;;;;;108751;1286;22450;-24
2022/09/01 01:58:10;;;;;;;2.90;1.30;;;;;;;;;;108559;1298;22532;-23
2022/09/01 02:00:36;;;;;;;2.80;1.40;;;;;;;;;;108685;1299;22405;-28
2022/09/01 02:03:02;;;;;;;3.20;1.60;;;;;;;;;;108744;1298;22516;-28
2022/09/01 02:05:28;;;;;;;3.00;1.80;;;;;;;;;;108761;1298;22437;-24
2022/09/01 02:07:54;;;;;;;3.00;1.50;;;;;;;;;;108750;1298;23288;-24
2022/09/01 02:10:21;;;;;;;1.70;1.10;;;;;;;;;;108745;1298;22913;-25
2022/09/01 02:12:48;;;;;;;2.10;1.60;;;;;;;;;;108728;1298;22805;-28
2022/09/01 02:15:14;;;;;;;3.30;1.80;;;;;;;;;;108775;1298;22406;-28
2022/09/01 02:17:41;;;;;;;2.20;1.20;;;;;;;;;;108003;1297;1003098;-24
2022/09/01 02:20:08;;;;;;;3.80;1.50;;;;;;;;;;108740;1298;23127;-24
2022/09/01 02:22:36;;;;;;;2.80;1.40;;;;;;;;;;108736;1297;22415;-28
2022/09/01 02:25:04;;;;;;;3.80;0.70;;;;;;;;;;108743;1298;22490;-24
2022/09/01 02:27:32;;;;;;;4.10;0.70;;;;;;;;;;108421;1299;23179;-25
2022/09/01 02:29:59;;;;;;;2.10;1.50;;;;;;;;;;108643;1298;22612;-29
2022/09/01 02:32:25;;;;;;;1.60;1.10;;;;;;;;;;108557;1297;23151;-26
2022/09/01 02:34:52;;;;;;;1.80;0.90;;;;;;;;;;108755;1298;22559;-29
2022/09/01 02:37:24;;;;;;;9.00;0.90;;;;;;;;;;108729;1299;22615;-25
2022/09/01 02:39:50;;;;;;;2.10;1.40;;;;;;;;;;108726;1304;23317;-25
2022/09/01 02:42:16;;;;;;;5.10;0.80;;;;;;;;;;108730;1298;23113;-28
2022/09/01 02:44:43;;;;;;;4.40;1.00;;;;;;;;;;108681;1298;22549;-25
2022/09/01 02:47:08;;;;;;;2.00;1.30;;;;;;;;;;108712;1299;22409;-25
2022/09/01 02:49:34;;;;;;;4.60;1.10;;;;;;;;;;108771;1297;23176;-29
2022/09/01 02:52:01;;;;;;;1.80;1.00;;;;;;;;;;108753;1298;22447;-26
2022/09/01 02:54:28;;;;;;;2.00;0.80;;;;;;;;;;108741;1298;23271;-29
2022/09/01 02:56:54;;;;;;;2.40;1.00;;;;;;;;;;108748;1298;22557;-25
2022/09/01 02:59:20;;;;;;;1.60;1.10;;;;;;;;;;108258;1297;23219;-29
2022/09/01 03:01:46;;;;;;;1.10;0.70;;;;;;;;;;108733;1298;22731;-28
2022/09/01 03:04:12;;;;;;;2.10;0.80;;;;;;;;;;108749;1297;22957;-24
2022/09/01 03:06:38;;;;;;;5.60;1.00;;;;;;;;;;108712;1298;22536;-28
2022/09/01 03:09:05;;;;;;;1.00;0.80;;;;;;;;;;108574;1305;23301;-28
2022/09/01 03:11:31;;;;;;;1.70;1.20;;;;;;;;;;108735;1297;22896;-28
2022/09/01 03:13:57;;;;;;;2.90;1.10;;;;;;;;;;108699;1298;22500;-25
2022/09/01 03:16:22;;;;;;;2.00;0.90;;;;;;;;;;108725;1298;23311;-30
2022/09/01 03:18:49;;;;;;;1.70;0.80;;;;;;;;;;108651;1297;23367;-29
2022/09/01 03:21:15;;;;;;;1.40;0.80;;;;;;;;;;108748;1298;22398;-26
2022/09/01 03:23:42;;;;;;;2.90;1.10;;;;;;;;;;108749;1297;23309;-29
2022/09/01 03:26:08;;;;;;;4.10;1.70;;;;;;;;;;108729;1297;22550;-25
2022/09/01 03:28:33;;;;;;;2.10;1.00;;;;;;;;;;108679;1298;22391;-26
2022/09/01 03:30:59;;;;;;;5.70;1.20;;;;;;;;;;108744;1297;23089;-26
2022/09/01 03:33:25;;;;;;;2.50;1.20;;;;;;;;;;108720;1297;22748;-27
2022/09/01 03:35:51;;;;;;;4.50;3.00;;;;;;;;;;108725;1298;22531;-29
2022/09/01 03:38:19;;;;;;;3.40;1.00;;;;;;;;;;108633;1298;22531;-26
2022/09/01 03:40:45;;;;;;;3.80;1.00;;;;;;;;;;108451;1297;22535;-24
2022/09/01 03:43:12;;;;;;;1.60;0.70;;;;;;;;;;108745;1298;22399;-26
2022/09/01 03:45:38;;;;;;;2.30;0.50;;;;;;;;;;108484;1299;22557;-25
2022/09/01 03:48:08;;;;;;;1.50;1.00;;;;;;;;;;108745;1299;22403;-28
2022/09/01 03:50:36;;;;;;;2.10;1.30;;;;;;;;;;108734;1298;22454;-28
2022/09/01 03:53:02;;;;;;;2.50;0.90;;;;;;;;;;108689;1297;22924;-28
2022/09/01 03:55:29;;;;;;;4.40;1.70;;;;;;;;;;108441;1297;23635;-28
2022/09/01 03:57:56;;;;;;;1.20;0.90;;;;;;;;;;108752;1297;22258;-25
2022/09/01 04:00:22;;;;;;;2.30;1.10;;;;;;;;;;108735;1298;22424;-29
2022/09/01 04:02:49;;;;;;;1.00;0.70;;;;;;;;;;108722;1297;22898;-25
2022/09/01 04:05:14;;;;;;;1.00;0.80;;;;;;;;;;108743;1297;23257;-25
2022/09/01 04:07:41;;;;;;;1.50;1.10;;;;;;;;;;108724;1297;23344;-25
2022/09/01 04:10:10;;;;;;;4.60;1.10;;;;;;;;;;108745;1297;22454;-25
2022/09/01 04:12:36;;;;;;;1.90;0.90;;;;;;;;;;108451;1298;23156;-25
2022/09/01 04:15:02;;;;;;;3.20;1.40;;;;;;;;;;108482;1297;22525;-28
2022/09/01 04:19:57;;;;;;;3.10;1.10;;;;;;;;;;108708;1283;22481;-25
2022/09/01 04:22:28;;;;;;;4.20;1.20;;;;;;;;;;108700;1297;23069;-28
2022/09/01 04:24:55;;;;;;;2.60;1.60;;;;;;;;;;108790;1297;22538;-28
2022/09/01 04:27:21;;;;;;;2.00;1.00;;;;;;;;;;108735;1304;23277;-28
2022/09/01 04:29:47;;;;;;;6.70;1.00;;;;;;;;;;108703;1297;23346;-28
2022/09/01 04:32:14;;;;;;;2.10;1.00;;;;;;;;;;108743;1297;23714;-28
2022/09/01 04:34:40;;;;;;;2.70;1.20;;;;;;;;;;108721;1297;22416;-28
2022/09/01 04:37:07;;;;;;;2.70;1.00;;;;;;;;;;108734;1304;23201;-25
2022/09/01 04:39:35;;;;;;;2.40;1.10;;;;;;;;;;108753;1297;22412;-28
2022/09/01 04:42:07;;;;;;;1.80;1.30;;;;;;;;;;108633;1297;22439;-25
2022/09/01 04:44:34;;;;;;;3.70;1.50;;;;;;;;;;108701;1304;22553;-25
2022/09/01 04:47:00;;;;;;;1.90;1.30;;;;;;;;;;108513;1305;23294;-28
2022/09/01 04:49:27;;;;;;;3.10;1.50;;;;;;;;;;108739;1297;23317;-25
2022/09/01 04:51:52;;;;;;;1.50;1.00;;;;;;;;;;108703;1304;23179;-25
2022/09/01 04:54:18;;;;;;;1.60;1.10;;;;;;;;;;108708;1297;22536;-25
2022/09/01 04:56:44;;;;;;;3.90;1.10;;;;;;;;;;108759;1297;22972;-29
2022/09/01 04:59:10;;;;;;;2.70;0.90;;;;;;;;;;108717;1297;22550;-28
2022/09/01 05:01:42;;;;;;;3.50;1.30;;;;;;;;;;108698;1297;23184;-24
2022/09/01 05:04:08;;;;;;;1.80;1.10;;;;;;;;;;108250;1297;23367;-28
2022/09/01 05:06:34;;;;;;;3.40;0.80;;;;;;;;;;108766;1297;22527;-28
2022/09/01 05:09:00;;;;;;;1.80;0.90;;;;;;;;;;108731;1297;23129;-26
2022/09/01 05:11:26;;;;;;;1.50;1.10;;;;;;;;;;108744;1297;23285;-28
2022/09/01 05:13:56;;;;;;;1.80;1.10;;;;;;;;;;108713;1297;22552;-25
2022/09/01 05:16:24;;;;;;;1.40;0.90;;;;;;;;;;107480;1297;22526;-26
2022/09/01 05:18:50;;;;;;;1.30;0.90;;;;;;;;;;108585;1297;23117;-26
2022/09/01 05:21:17;;;;;;;3.60;1.40;;;;;;;;;;108687;1304;22296;-25
2022/09/01 05:23:43;;;;;;;1.80;0.70;;;;;;;;;;108671;1298;22449;-29
2022/09/01 05:26:15;;;;;;;2.20;1.50;;;;;;;;;;108767;1297;23210;-26
2022/09/01 05:28:42;;;;;;;2.20;1.30;;;;;;;;;;108477;1304;23232;-26
2022/09/01 05:31:08;;;;;;;1.00;0.70;;;;;;;;;;108750;1297;23754;-29
2022/09/01 05:33:35;;;;;;;1.60;1.00;;;;;;;;;;108463;1297;23200;-24
2022/09/01 05:36:06;;;;;;;4.00;1.10;;;;;;;;;;108240;1297;22936;-25
2022/09/01 05:38:33;;;;;;;1.40;1.00;;;;;;;;;;108208;1292;22534;-25
2022/09/01 05:41:02;;;;;;;3.70;1.10;;;;;;;;;;108716;1297;23179;-29
2022/09/01 05:43:27;;;;;;;2.30;1.30;;;;;;;;;;108652;1297;22527;-24
2022/09/01 05:45:54;;;;;;;1.20;0.90;;;;;;;;;;108687;1304;23395;-28
2022/09/01 05:48:22;;;;;;;1.40;1.00;;;;;;;;;;108589;1298;22530;-27
2022/09/01 05:50:48;;;;;;;2.40;1.20;;;;;;;;;;108685;1297;23560;-28
2022/09/01 05:53:14;;;;;;;11.60;1.30;;;;;;;;;;108532;1297;23241;-28
2022/09/01 05:55:42;;;;;;;2.50;1.00;;;;;;;;;;108498;1297;23215;-28
2022/09/01 05:58:12;;;;;;;2.70;1.50;;;;;;;;;;108506;1298;23458;-29
2022/09/01 06:00:39;;;;;;;1.80;1.30;;;;;;;;;;108714;1298;23108;-28
2022/09/01 06:03:08;;;;;;;2.60;1.20;;;;;;;;;;108575;1304;22204;-25
2022/09/01 06:05:35;;;;;;;4.60;0.80;;;;;;;;;;108571;1297;23120;-26
2022/09/01 06:08:01;;;;;;;6.00;0.60;;;;;;;;;;108652;1298;28159;-30
2022/09/01 06:10:28;;;;;;;1.80;1.10;;;;;;;;;;108610;1297;23214;-30
2022/09/01 06:12:53;;;;;;;1.10;0.90;;;;;;;;;;108578;1297;22527;-29
2022/09/01 06:15:19;;;;;;;7.00;1.30;;;;;;;;;;108612;1297;22617;-30
2022/09/01 06:17:45;;;;;;;1.70;0.80;;;;;;;;;;108673;1298;22411;-26
2022/09/01 06:20:11;;;;;;;5.30;0.70;;;;;;;;;;108640;1297;22537;-30
2022/09/01 06:22:38;;;;;;;2.20;0.80;;;;;;;;;;108149;1297;25301;-26
2022/09/01 06:25:05;;;;;;;3.40;0.80;;;;;;;;;;108633;1299;22549;-25
2022/09/01 06:27:32;;;;;;;2.20;0.70;;;;;;;;;;108688;1289;22395;-29
2022/09/01 06:29:57;;;;;;;1.60;0.60;;;;;;;;;;108629;1297;23146;-29
2022/09/01 06:32:24;;;;;;;1.30;0.60;;;;;;;;;;107677;1297;22516;-26
2022/09/01 06:34:50;;;;;;;1.00;0.50;;;;;;;;;;108519;1299;23326;-29
2022/09/01 06:37:16;;;;;;;2.10;0.70;;;;;;;;;;108584;1304;22881;-26
2022/09/01 06:39:42;;;;;;;3.20;0.60;;;;;;;;;;108656;1297;23268;-26
2022/09/01 06:42:12;;;;;;;4.50;0.60;;;;;;;;;;108641;1297;23603;-25
2022/09/01 06:44:37;;;;;;;1.50;0.50;;;;;;;;;;108557;1299;23074;-26
2022/09/01 06:47:03;;;;;;;1.80;0.70;;;;;;;;;;108538;1304;25175;-30
2022/09/01 06:49:31;;;;;;;1.70;0.60;;;;;;;;;;108677;1304;22493;-26
2022/09/01 06:51:58;;;;;;;2.50;0.70;;;;;;;;;;107903;1297;22543;-25
2022/09/01 06:54:24;;;;;;;0.90;0.30;;;;;;;;;;108512;1304;23230;-25
2022/09/01 06:56:52;;;;;;;1.10;0.60;;;;;;;;;;108596;1297;23174;-29
2022/09/01 06:59:18;;;;;;;1.50;0.50;;;;;;;;;;108673;1304;22571;-26
2022/09/01 07:01:43;;;;;;;3.30;0.50;;;;;;;;;;108735;1297;23148;-25
2022/09/01 07:04:09;;;;;;;4.20;0.50;;;;;;;;;;108744;1297;23192;-29
2022/09/01 07:06:35;;;;;;;5.20;0.40;;;;;;;;;;108642;1304;22529;-26
2022/09/01 07:09:01;;;;;;;2.10;0.40;;;;;;;;;;108458;1299;23256;-29
2022/09/01 07:11:28;;;;;;;2.30;0.50;;;;;;;;;;108736;1297;23198;-29
2022/09/01 07:13:55;;;;;;;1.40;0.60;;;;;;;;;;108719;1289;23102;-29
2022/09/01 07:16:22;;;;;;;1.60;0.40;;;;;;;;;;108653;1290;22595;-29
2022/09/01 07:18:48;;;;;;;1.30;0.40;;;;;;;;;;108714;1297;22287;-26
2022/09/01 07:21:14;;;;;;;0.50;0.30;;;;;;;;;;108574;1296;22515;-26
2022/09/01 07:23:42;;;;;;;1.50;0.30;;;;;;;;;;107937;1304;921297;-27
2022/09/01 07:26:08;;;;;;;3.20;0.40;;;;;;;;;;108558;1297;23181;-24
2022/09/01 07:28:34;;;;;;;1.40;0.30;;;;;;;;;;108401;1297;22596;-24
2022/09/01 07:31:00;;;;;;;0.70;0.40;;;;;;;;;;108302;1282;23364;-25
2022/09/01 07:33:26;;;;;;;0.50;0.40;;;;;;;;;;108465;1304;23325;-29
2022/09/01 07:35:54;;;;;;;0.10;0.10;;;;;;;;;;108706;1297;23212;-25
2022/09/01 07:38:20;;;;;;;0.70;0.30;;;;;;;;;;108350;1304;22499;-25
2022/09/01 07:40:45;;;;;;;0.20;0.20;;;;;;;;;;108613;1297;25236;-25
2022/09/01 07:43:14;;;;;;;0.80;0.30;;;;;;;;;;108709;1298;23039;-25
2022/09/01 07:45:42;;;;;;;1.20;0.20;;;;;;;;;;108616;1297;23233;-25
2022/09/01 07:48:08;;;;;;;0.40;0.30;;;;;;;;;;108582;1297;23277;-29
2022/09/01 07:50:35;;;;;;;1.00;0.30;;;;;;;;;;108614;1298;22532;-29
2022/09/01 07:53:01;;;;;;;0.60;0.30;;;;;;;;;;108679;1297;23286;-29
2022/09/01 07:55:27;;;;;;;1.40;0.30;;;;;;;;;;108595;1298;23164;-26
2022/09/01 07:57:53;;;;;;;1.70;0.60;;;;;;;;;;108655;1297;22742;-25
2022/09/01 08:00:20;;;;;;;3.70;0.50;;;;;;;;;;108711;1297;23174;-25
2022/09/01 08:02:46;;;;;;;1.10;0.40;;;;;;;;;;108446;1297;25245;-29
2022/09/01 08:05:13;;;;;;;0.80;0.40;;;;;;;;;;108654;1297;23719;-29
2022/09/01 08:07:39;;;;;;;0.60;0.30;;;;;;;;;;108602;1304;22943;-29
2022/09/01 08:10:05;;;;;;;1.00;0.30;;;;;;;;;;108705;1304;22512;-29
2022/09/01 08:12:30;;;;;;;2.00;0.70;;;;;;;;;;108648;1283;22520;-25
2022/09/01 08:14:56;;;;;;;1.90;0.40;;;;;;;;;;108242;1297;22530;-29
2022/09/01 08:17:21;;;;;;;2.50;0.40;;;;;;;;;;108577;1284;22531;-29
2022/09/01 08:19:48;;;;;;;3.00;0.30;;;;;;;;;;108424;1297;23356;-29
2022/09/01 08:22:14;;;;;;;0.80;0.20;;;;;;;;;;108661;1304;22553;-25
2022/09/01 08:24:39;;;;;;;0.20;0.00;;;;;;;;;;108684;1282;23905;-25
2022/09/01 08:27:05;;;;;;;1.60;0.20;;;;;;;;;;108669;1297;22556;-26
2022/09/01 08:29:30;;;;;;;0.30;0.10;;;;;;;;;;108479;1297;23229;-28
2022/09/01 08:31:57;;;;;;;6.80;0.20;;;;;;;;;;108680;1298;23248;-25
2022/09/01 08:34:24;;;;;;;2.60;0.50;;;;;;;;;;108753;1304;22524;-28
2022/09/01 08:36:49;;;;;;;5.20;0.30;;;;;;;;;;108729;1297;23232;-25
2022/09/01 08:39:16;;;;;;;0.50;0.20;;;;;;;;;;108429;1297;23220;-25
2022/09/01 08:41:43;;;;;;;7.50;0.20;;;;;;;;;;108387;1297;22514;-25
2022/09/01 08:44:14;;;;;;;0.40;0.20;;;;;;;;;;108571;1297;23321;-26
2022/09/01 08:46:41;;;;;;;1.00;0.20;;;;;;;;;;108536;1304;25219;-25
2022/09/01 08:49:11;;;;;;;0.80;0.10;;;;;;;;;;108627;1298;22817;-26
2022/09/01 08:51:38;;;;;;;1.80;0.30;;;;;;;;;;108428;1299;22527;-28
2022/09/01 08:54:07;;;;;;;2.80;0.40;;;;;;;;;;108447;1297;22510;-24
2022/09/01 08:56:34;;;;;;;0.90;0.20;;;;;;;;;;108534;1299;23379;-24
2022/09/01 08:59:01;;;;;;;2.20;0.30;;;;;;;;;;108684;1297;22540;-28
2022/09/01 09:01:30;;;;;;;0.80;0.10;;;;;;;;;;108673;1297;22619;-28
2022/09/01 09:03:55;;;;;;;0.80;0.20;;;;;;;;;;108706;1298;23183;-28
2022/09/01 09:06:24;;;;;;;1.60;0.30;;;;;;;;;;108701;1304;22936;-24
2022/09/01 09:08:50;;;;;;;0.40;0.20;;;;;;;;;;108722;1283;22502;-27
2022/09/01 09:11:21;;;;;;;0.10;0.00;;;;;;;;;;108737;1297;23105;-27
2022/09/01 09:13:50;;;;;;;2.10;0.10;;;;;;;;;;108739;1297;22420;-24
2022/09/01 09:16:20;;;;;;;0.30;0.10;;;;;;;;;;108679;1302;23146;-24
2022/09/01 09:18:49;;;;;;;2.60;0.20;;;;;;;;;;108527;1297;22558;-24
2022/09/01 09:21:16;;;;;;;1.20;0.40;;;;;;;;;;108509;1297;22676;-26
2022/09/01 09:23:42;;;;;;;1.00;0.30;;;;;;;;;;108382;1297;22513;-25
2022/09/01 09:26:08;;;;;;;0.80;0.40;;;;;;;;;;107394;1298;23151;-25
2022/09/01 09:28:33;;;;;;;0.70;0.30;;;;;;;;;;108618;1297;22556;-25
2022/09/01 09:31:03;;;;;;;1.90;0.20;;;;;;;;;;108608;1298;22537;-24
2022/09/01 09:33:32;;;;;;;0.00;0.00;;;;;;;;;;108159;1297;23187;-30
2022/09/01 09:36:02;;;;;;;2.00;0.30;;;;;;;;;;108243;1282;23160;-25
2022/09/01 09:38:27;;;;;;;2.20;0.30;;;;;;;;;;108626;1297;23187;-28
2022/09/01 09:40:54;;;;;;;0.20;0.10;;;;;;;;;;108608;1297;22535;-28
2022/09/01 09:43:19;;;;;;;0.20;0.20;;;;;;;;;;108516;1297;23231;-24
2022/09/01 09:45:45;;;;;;;1.00;0.30;;;;;;;;;;108699;1304;22421;-24
2022/09/01 09:48:23;;;;;;;0.50;0.20;;;;;;;;;;108710;1304;22526;-25
2022/09/01 09:50:49;;;;;;;0.40;0.20;;;;;;;;;;108660;1304;23784;-24
2022/09/01 09:53:15;;;;;;;1.20;0.10;;;;;;;;;;108713;1297;22926;-28
2022/09/01 09:55:44;;;;;;;0.20;0.10;;;;;;;;;;108717;1297;22957;-24
2022/09/01 09:58:09;;;;;;;0.40;0.20;;;;;;;;;;108703;1297;23074;-28
2022/09/01 10:00:35;;;;;;;5.70;0.20;;;;;;;;;;108681;1297;22627;-24
2022/09/01 10:03:01;;;;;;;0.20;0.10;;;;;;;;;;108515;1297;24877;-24
2022/09/01 10:05:28;;;;;;;0.40;0.10;;;;;;;;;;108668;1298;22514;-28
2022/09/01 10:07:54;;;;;;;0.30;0.10;;;;;;;;;;108736;1297;23182;-24
2022/09/01 10:10:23;;;;;;;0.60;0.30;;;;;;;;;;108693;1297;22947;-28
2022/09/01 10:12:50;;;;;;;1.20;0.20;;;;;;;;;;108648;1299;22532;-24
2022/09/01 10:15:15;;;;;;;0.20;0.10;;;;;;;;;;108572;1298;22508;-28
2022/09/01 10:17:42;;;;;;;0.60;0.10;;;;;;;;;;108739;1297;23240;-28
2022/09/01 10:20:10;;;;;;;0.60;0.10;;;;;;;;;;108658;1297;22525;-28
2022/09/01 10:22:36;;;;;;;0.30;0.00;;;;;;;;;;108681;1297;22578;-24
2022/09/01 10:25:02;;;;;;;1.50;0.20;;;;;;;;;;108602;1297;23214;-26
2022/09/01 10:27:29;;;;;;;0.40;0.10;;;;;;;;;;108521;1297;23860;-24
2022/09/01 10:29:57;;;;;;;0.10;0.10;;;;;;;;;;108629;1297;23176;-24
2022/09/01 10:32:24;;;;;;;1.10;0.20;;;;;;;;;;108683;1297;22569;-24
2022/09/01 10:34:50;;;;;;;0.30;0.10;;;;;;;;;;108403;1298;22560;-24
2022/09/01 10:37:16;;;;;;;0.90;0.10;;;;;;;;;;108557;1297;23303;-28
2022/09/01 10:40:01;;;;;;;0.40;0.20;;;;;;;;;;108567;1304;22585;-25
2022/09/01 10:42:27;;;;;;;2.10;0.30;;;;;;;;;;108109;1297;22763;-25
2022/09/01 10:44:54;;;;;;;0.00;0.00;;;;;;;;;;108527;1304;22508;-28
2022/09/01 10:47:23;;;;;;;0.70;0.20;;;;;;;;;;108661;1299;22465;-28
2022/09/01 10:49:58;;;;;;;0.20;0.20;;;;;;;;;;108731;1297;22544;-28
2022/09/01 10:52:27;;;;;;;0.60;0.20;;;;;;;;;;108645;1297;23196;-28
2022/09/01 10:54:54;;;;;;;1.20;0.20;;;;;;;;;;108714;1298;22550;-28
2022/09/01 10:57:25;;;;;;;0.70;0.20;;;;;;;;;;108707;1297;22430;-28
2022/09/01 10:59:52;;;;;;;0.90;0.10;;;;;;;;;;108540;1298;22545;-28
2022/09/01 11:02:18;;;;;;;0.40;0.10;;;;;;;;;;108715;1289;22574;-24
2022/09/01 11:04:43;;;;;;;0.50;0.10;;;;;;;;;;107591;1298;23139;-27
2022/09/01 11:07:12;;;;;;;0.70;0.30;;;;;;;;;;108617;1299;22524;-23
2022/09/01 11:09:39;;;;;;;0.60;0.40;;;;;;;;;;108487;1297;23078;-27
2022/09/01 11:12:09;;;;;;;0.30;0.10;;;;;;;;;;108750;1297;23180;-24
2022/09/01 11:14:45;;;;;;;0.30;0.10;;;;;;;;;;108712;1304;22531;-28
2022/09/01 11:17:14;;;;;;;0.60;0.20;;;;;;;;;;108782;1296;23038;-26
2022/09/01 11:19:42;;;;;;;0.40;0.10;;;;;;;;;;108706;1297;22601;-23
2022/09/01 11:22:10;;;;;;;0.30;0.10;;;;;;;;;;108364;1297;22529;-28
2022/09/01 11:24:37;;;;;;;0.30;0.20;;;;;;;;;;108714;1297;22576;-28
2022/09/01 11:27:03;;;;;;;0.30;0.10;;;;;;;;;;108622;1297;22626;-27
2022/09/01 11:29:33;;;;;;;0.60;0.00;;;;;;;;;;108223;1297;23213;-25
2022/09/01 11:31:58;;;;;;;0.90;0.10;;;;;;;;;;108622;1297;22532;-30
2022/09/01 11:34:24;;;;;;;2.40;0.30;;;;;;;;;;108708;1297;23289;-30
2022/09/01 11:36:51;;;;;;;4.70;0.30;;;;;;;;;;108713;1296;22399;-23
2022/09/01 11:39:17;;;;;;;0.50;0.10;;;;;;;;;;108717;1301;22532;-23
2022/09/01 11:41:44;;;;;;;0.90;0.00;;;;;;;;;;108693;1304;23781;-27
2022/09/01 11:44:12;;;;;;;0.40;0.20;;;;;;;;;;108693;1297;22540;-27
2022/09/01 11:46:40;;;;;;;0.20;0.10;;;;;;;;;;108690;1297;23480;-27
2022/09/01 11:49:06;;;;;;;0.60;0.30;;;;;;;;;;108725;1297;22442;-27
2022/09/01 11:51:35;;;;;;;0.70;0.10;;;;;;;;;;108689;1297;22550;-25
2022/09/01 11:54:00;;;;;;;0.10;0.00;;;;;;;;;;108667;1297;23358;-29
2022/09/01 11:56:26;;;;;;;2.10;0.40;;;;;;;;;;108654;1298;23194;-29
2022/09/01 11:58:51;;;;;;;0.40;0.20;;;;;;;;;;108474;1297;23189;-25
2022/09/01 12:01:19;;;;;;;2.70;0.40;;;;;;;;;;108508;1297;25200;-26
2022/09/01 12:03:45;;;;;;;0.80;0.10;;;;;;;;;;108578;1298;22403;-29
2022/09/01 12:06:12;;;;;;;0.80;0.30;;;;;;;;;;108314;1289;22520;-26
2022/09/01 12:08:38;;;;;;;0.00;0.00;;;;;;;;;;108486;1298;23134;-25
2022/09/01 12:11:05;;;;;;;0.60;0.20;;;;;;;;;;108626;1297;22556;-29
2022/09/01 12:13:31;;;;;;;1.80;0.20;;;;;;;;;;108741;1298;22410;-26
2022/09/01 12:15:57;;;;;;;2.40;0.20;;;;;;;;;;108591;1304;22528;-25
2022/09/01 12:18:26;;;;;;;0.40;0.30;;;;;;;;;;108724;1296;22547;-28
2022/09/01 12:20:54;;;;;;;3.70;0.30;;;;;;;;;;108770;1296;23307;-28
2022/09/01 12:23:24;;;;;;;0.20;0.10;;;;;;;;;;108704;1297;22547;-28
2022/09/01 12:25:49;;;;;;;1.20;0.20;;;;;;;;;;108580;1297;23290;-28
2022/09/01 12:28:15;;;;;;;0.30;0.30;;;;;;;;;;108732;1296;22900;-24
2022/09/01 12:30:40;;;;;;;1.40;0.60;;;;;;;;;;108560;1304;23116;-24
2022/09/01 12:33:06;;;;;;;0.60;0.10;;;;;;;;;;108603;1304;23195;-24
2022/09/01 12:35:32;;;;;;;0.90;0.20;;;;;;;;;;108491;1283;23333;-26
2022/09/01 12:38:01;;;;;;;0.60;0.20;;;;;;;;;;108745;1297;23175;-26
2022/09/01 12:40:30;;;;;;;0.70;0.00;;;;;;;;;;108719;1298;23192;-24
2022/09/01 12:42:56;;;;;;;0.20;0.10;;;;;;;;;;108672;1298;22348;-29
2022/09/01 12:45:25;;;;;;;5.50;0.30;;;;;;;;;;108752;1297;22447;-29
2022/09/01 12:47:51;;;;;;;0.00;0.00;;;;;;;;;;108740;1298;22534;-25
2022/09/01 12:50:16;;;;;;;0.50;0.10;;;;;;;;;;108712;1298;22526;-25
2022/09/01 12:52:46;;;;;;;0.30;0.20;;;;;;;;;;108666;1297;22520;-28
2022/09/01 12:55:14;;;;;;;3.10;0.20;;;;;;;;;;108516;1298;23177;-28
2022/09/01 12:57:44;;;;;;;0.10;0.10;;;;;;;;;;108474;1299;23206;-23
2022/09/01 13:00:16;;;;;;;0.70;0.20;;;;;;;;;;108678;1289;22658;-24
2022/09/01 13:02:43;;;;;;;0.30;0.10;;;;;;;;;;108574;1304;22543;-24
2022/09/01 13:05:12;;;;;;;0.10;0.00;;;;;;;;;;108628;1304;22518;-24
2022/09/01 13:07:38;;;;;;;0.10;0.10;;;;;;;;;;108301;1304;25238;-28
2022/09/01 13:10:04;;;;;;;0.50;0.20;;;;;;;;;;108269;1299;23115;-28
2022/09/01 13:12:29;;;;;;;0.40;0.00;;;;;;;;;;108682;1302;22570;-28
2022/09/01 13:14:55;;;;;;;0.00;0.00;;;;;;;;;;108627;1297;23071;-28
2022/09/01 13:17:22;;;;;;;0.20;0.10;;;;;;;;;;108737;1297;22549;-25
2022/09/01 13:19:49;;;;;;;0.50;0.10;;;;;;;;;;108699;1297;23984;-28
2022/09/01 13:22:14;;;;;;;0.10;0.10;;;;;;;;;;108187;1298;23317;-28
2022/09/01 13:24:40;;;;;;;9.10;0.20;;;;;;;;;;108648;1298;23212;-28
2022/09/01 13:27:06;;;;;;;0.10;0.00;;;;;;;;;;108719;1297;23201;-28
2022/09/01 13:29:31;;;;;;;0.00;0.00;;;;;;;;;;108629;1299;22413;-25
2022/09/01 13:31:57;;;;;;;3.00;0.10;;;;;;;;;;107935;1289;25273;-23
2022/09/01 13:34:22;;;;;;;1.60;0.00;;;;;;;;;;108685;1297;22532;-25
2022/09/01 13:36:48;;;;;;;0.30;0.10;;;;;;;;;;108622;1298;22346;-24
2022/09/01 13:39:13;;;;;;;0.90;0.10;;;;;;;;;;108621;1297;23352;-28
2022/09/01 13:41:39;;;;;;;0.00;0.00;;;;;;;;;;108714;1297;23308;-28
2022/09/01 13:44:08;;;;;;;1.10;0.30;;;;;;;;;;108730;1297;23275;-27
2022/09/01 13:46:34;;;;;;;1.10;0.10;;;;;;;;;;108728;1297;22576;-27
2022/09/01 13:48:59;;;;;;;0.60;0.30;;;;;;;;;;108648;1299;23267;-28
2022/09/01 13:51:25;;;;;;;3.20;0.60;;;;;;;;;;108753;1296;23200;-23
2022/09/01 13:53:51;;;;;;;0.60;0.40;;;;;;;;;;108547;1304;23118;-27
2022/09/01 13:56:16;;;;;;;0.40;0.10;;;;;;;;;;108688;1298;23232;-24
2022/09/01 13:58:42;;;;;;;2.50;0.50;;;;;;;;;;108671;1298;22575;-24
2022/09/01 14:01:07;;;;;;;1.50;0.40;;;;;;;;;;108748;1297;23240;-27
2022/09/01 14:03:33;;;;;;;0.20;0.10;;;;;;;;;;108730;1297;22391;-27
2022/09/01 14:05:58;;;;;;;8.30;0.30;;;;;;;;;;108428;1297;25332;-27
2022/09/01 14:08:24;;;;;;;0.30;0.00;;;;;;;;;;108416;1300;25151;-27
2022/09/01 14:10:50;;;;;;;0.20;0.10;;;;;;;;;;108719;1283;23177;-24
2022/09/01 14:13:16;;;;;;;0.30;0.30;;;;;;;;;;108664;1298;23187;-27
2022/09/01 14:15:41;;;;;;;0.00;0.00;;;;;;;;;;108724;1296;23267;-27
2022/09/01 14:18:07;;;;;;;2.50;0.10;;;;;;;;;;108663;1304;23198;-24
2022/09/01 14:20:34;;;;;;;0.20;0.00;;;;;;;;;;108659;1297;22531;-24
2022/09/01 14:23:01;;;;;;;0.30;0.10;;;;;;;;;;108598;1304;23276;-23
2022/09/01 14:25:27;;;;;;;0.20;0.10;;;;;;;;;;108582;1297;22523;-23
2022/09/01 14:27:52;;;;;;;0.20;0.20;;;;;;;;;;108664;1298;23220;-27
2022/09/01 14:30:19;;;;;;;0.50;0.10;;;;;;;;;;108634;1299;23207;-28
2022/09/01 14:32:45;;;;;;;0.10;0.00;;;;;;;;;;108673;1298;22527;-27